createdAt,value
2022-11-03T00:00:55.867Z,957.61
2022-11-03T00:01:56.053Z,957.58
2022-11-03T00:02:56.034Z,957.61
2022-11-03T00:03:55.837Z,957.59
2022-11-03T00:04:55.813Z,957.54
2022-11-03T00:05:55.803Z,957.53
2022-11-03T00:06:55.817Z,957.53
2022-11-03T00:07:55.769Z,957.51
2022-11-03T00:08:55.762Z,957.47
2022-11-03T00:09:55.744Z,957.53
2022-11-03T00:10:55.742Z,957.47
2022-11-03T00:11:55.743Z,957.44
2022-11-03T00:12:55.698Z,957.43
2022-11-03T00:13:55.711Z,957.43
2022-11-03T00:14:55.671Z,957.41
2022-11-03T00:15:55.665Z,957.39
2022-11-03T00:16:55.673Z,957.36
2022-11-03T00:17:55.636Z,957.33
2022-11-03T00:18:55.625Z,957.34
2022-11-03T00:19:55.639Z,957.36
2022-11-03T00:20:55.594Z,957.38
2022-11-03T00:21:55.594Z,957.31
2022-11-03T00:22:55.595Z,957.30
2022-11-03T00:23:55.563Z,957.27
2022-11-03T00:24:55.564Z,957.28
2022-11-03T00:25:55.545Z,957.22
2022-11-03T00:26:55.519Z,957.24
2022-11-03T00:27:55.541Z,957.22
2022-11-03T00:28:55.491Z,957.21
2022-11-03T00:29:55.480Z,957.19
2022-11-03T00:30:55.463Z,957.21
2022-11-03T00:31:55.469Z,957.22
2022-11-03T00:32:55.457Z,957.23
2022-11-03T00:33:55.413Z,957.25
2022-11-03T00:34:55.401Z,957.23
2022-11-03T00:35:55.398Z,957.25
2022-11-03T00:36:55.410Z,957.20
2022-11-03T00:37:55.370Z,957.18
2022-11-03T00:38:55.370Z,957.23
2022-11-03T00:39:55.331Z,957.24
2022-11-03T00:40:55.332Z,957.19
2022-11-03T00:41:55.352Z,957.18
2022-11-03T00:42:55.309Z,957.18
2022-11-03T00:43:55.293Z,957.20
2022-11-03T00:44:55.277Z,957.13
2022-11-03T00:45:55.258Z,957.18
2022-11-03T00:46:55.276Z,957.15
2022-11-03T00:47:55.234Z,957.15
2022-11-03T00:48:55.239Z,957.17
2022-11-03T00:49:55.232Z,957.18
2022-11-03T00:50:55.187Z,957.16
2022-11-03T00:51:55.206Z,957.14
2022-11-03T00:52:55.163Z,957.16
2022-11-03T00:53:55.153Z,957.12
2022-11-03T00:54:55.468Z,957.10
2022-11-03T00:55:55.127Z,957.13
2022-11-03T00:56:55.107Z,957.10
2022-11-03T00:57:55.106Z,957.05
2022-11-03T00:58:55.080Z,957.09
2022-11-03T00:59:55.097Z,957.06
2022-11-03T01:00:55.094Z,957.04
2022-11-03T01:01:55.302Z,957.07
2022-11-03T01:02:55.032Z,957.04
2022-11-03T01:03:55.059Z,957.02
2022-11-03T01:04:55.007Z,957.02
2022-11-03T01:05:54.990Z,957.00
2022-11-03T01:06:54.987Z,956.99
2022-11-03T01:07:55.109Z,956.96
2022-11-03T01:08:54.950Z,956.93
2022-11-03T01:09:54.961Z,956.96
2022-11-03T01:10:54.918Z,956.95
2022-11-03T01:11:54.916Z,956.93
2022-11-03T01:12:54.893Z,956.92
2022-11-03T01:13:54.920Z,956.87
2022-11-03T01:14:54.871Z,956.86
2022-11-03T01:15:54.865Z,956.88
2022-11-03T01:16:54.877Z,956.85
2022-11-03T01:17:54.828Z,956.82
2022-11-03T01:18:54.817Z,956.82
2022-11-03T01:19:54.807Z,956.77
2022-11-03T01:20:54.801Z,956.75
2022-11-03T01:21:54.817Z,956.74
2022-11-03T01:22:54.764Z,956.75
2022-11-03T01:23:54.765Z,956.74
2022-11-03T01:24:54.747Z,956.70
2022-11-03T01:25:54.731Z,956.61
2022-11-03T01:26:54.736Z,956.63
2022-11-03T01:27:54.799Z,956.57
2022-11-03T01:28:54.686Z,956.53
2022-11-03T01:29:54.668Z,956.50
2022-11-03T01:30:54.661Z,956.46
2022-11-03T01:31:54.697Z,956.44
2022-11-03T01:32:54.655Z,956.41
2022-11-03T01:33:54.620Z,956.35
2022-11-03T01:34:54.642Z,956.42
2022-11-03T01:35:54.639Z,956.37
2022-11-03T01:36:54.593Z,956.41
2022-11-03T01:37:54.626Z,956.41
2022-11-03T01:38:54.575Z,956.39
2022-11-03T01:39:54.599Z,956.34
2022-11-03T01:40:54.520Z,956.37
2022-11-03T01:41:54.505Z,956.36
2022-11-03T01:42:54.535Z,956.35
2022-11-03T01:43:54.498Z,956.27
2022-11-03T01:44:54.474Z,956.30
2022-11-03T01:45:54.464Z,956.28
2022-11-03T01:46:54.473Z,956.29
2022-11-03T01:47:54.517Z,956.33
2022-11-03T01:48:54.422Z,956.32
2022-11-03T01:49:54.438Z,956.29
2022-11-03T01:50:54.382Z,956.25
2022-11-03T01:51:54.389Z,956.27
2022-11-03T01:52:54.396Z,956.27
2022-11-03T01:53:54.356Z,956.22
2022-11-03T01:54:54.333Z,956.25
2022-11-03T01:55:54.326Z,956.19
2022-11-03T01:56:54.355Z,956.18
2022-11-03T01:57:54.326Z,956.18
2022-11-03T01:58:54.300Z,956.13
2022-11-03T01:59:54.272Z,956.15
2022-11-03T02:00:54.361Z,956.15
2022-11-03T02:01:54.352Z,956.08
2022-11-03T02:02:54.254Z,956.09
2022-11-03T02:03:54.223Z,956.09
2022-11-03T02:04:54.209Z,956.09
2022-11-03T02:05:54.178Z,956.03
2022-11-03T02:06:54.179Z,956.03
2022-11-03T02:07:54.252Z,956.02
2022-11-03T02:08:54.182Z,955.99
2022-11-03T02:09:54.138Z,956.05
2022-11-03T02:10:54.117Z,956.02
2022-11-03T02:11:54.109Z,955.98
2022-11-03T02:12:54.097Z,955.96
2022-11-03T02:13:54.099Z,955.94
2022-11-03T02:14:54.065Z,955.89
2022-11-03T02:15:54.052Z,955.91
2022-11-03T02:16:54.040Z,955.91
2022-11-03T02:17:54.034Z,955.86
2022-11-03T02:18:54.054Z,955.90
2022-11-03T02:19:54.005Z,955.91
2022-11-03T02:20:53.995Z,955.87
2022-11-03T02:21:53.971Z,955.88
2022-11-03T02:22:53.964Z,955.83
2022-11-03T02:23:53.948Z,955.85
2022-11-03T02:24:54.440Z,955.81
2022-11-03T02:25:53.961Z,955.82
2022-11-03T02:26:53.908Z,955.82
2022-11-03T02:27:53.919Z,955.82
2022-11-03T02:29:53.889Z,955.76
2022-11-03T02:30:53.849Z,955.82
2022-11-03T02:31:53.842Z,955.81
2022-11-03T02:32:53.823Z,955.85
2022-11-03T02:33:53.808Z,955.84
2022-11-03T02:34:53.794Z,955.81
2022-11-03T02:35:53.822Z,955.84
2022-11-03T02:36:53.799Z,955.88
2022-11-03T02:37:53.763Z,955.86
2022-11-03T02:38:53.767Z,955.84
2022-11-03T02:39:53.731Z,955.86
2022-11-03T02:40:53.717Z,955.84
2022-11-03T02:41:53.703Z,955.84
2022-11-03T02:42:53.681Z,955.83
2022-11-03T02:43:53.705Z,955.81
2022-11-03T02:44:53.664Z,955.79
2022-11-03T02:45:53.649Z,955.84
2022-11-03T02:46:53.634Z,955.82
2022-11-03T02:47:53.649Z,955.80
2022-11-03T02:48:53.615Z,955.79
2022-11-03T02:49:53.616Z,955.79
2022-11-03T02:50:53.620Z,955.78
2022-11-03T02:51:53.610Z,955.78
2022-11-03T02:52:53.553Z,955.77
2022-11-03T02:53:53.572Z,955.75
2022-11-03T02:54:53.525Z,955.77
2022-11-03T02:55:53.508Z,955.78
2022-11-03T02:56:53.492Z,955.78
2022-11-03T02:57:53.521Z,955.74
2022-11-03T02:58:53.502Z,955.70
2022-11-03T02:59:53.472Z,955.67
2022-11-03T03:00:53.547Z,955.66
2022-11-03T03:01:53.629Z,955.65
2022-11-03T03:02:53.419Z,955.70
2022-11-03T03:03:53.434Z,955.66
2022-11-03T03:04:53.394Z,955.70
2022-11-03T03:05:53.377Z,955.65
2022-11-03T03:06:53.360Z,955.70
2022-11-03T03:07:53.365Z,955.69
2022-11-03T03:08:53.355Z,955.75
2022-11-03T03:09:53.329Z,955.69
2022-11-03T03:10:53.321Z,955.68
2022-11-03T03:11:53.307Z,955.68
2022-11-03T03:12:53.329Z,955.68
2022-11-03T03:13:53.264Z,955.65
2022-11-03T03:14:53.255Z,955.66
2022-11-03T03:15:53.276Z,955.62
2022-11-03T03:16:53.269Z,955.58
2022-11-03T03:17:53.220Z,955.60
2022-11-03T03:18:53.227Z,955.58
2022-11-03T03:19:53.202Z,955.58
2022-11-03T03:20:53.179Z,955.57
2022-11-03T03:21:53.164Z,955.58
2022-11-03T03:22:53.176Z,955.62
2022-11-03T03:23:53.129Z,955.63
2022-11-03T03:24:53.124Z,955.65
2022-11-03T03:25:53.105Z,955.65
2022-11-03T03:26:53.131Z,955.72
2022-11-03T03:27:53.079Z,955.67
2022-11-03T03:28:53.068Z,955.65
2022-11-03T03:29:53.075Z,955.67
2022-11-03T03:30:53.036Z,955.67
2022-11-03T03:31:53.023Z,955.71
2022-11-03T03:32:53.038Z,955.66
2022-11-03T03:33:59.732Z,955.69
2022-11-03T03:34:53.001Z,955.69
2022-11-03T03:35:52.993Z,955.68
2022-11-03T03:36:53.038Z,955.68
2022-11-03T03:37:52.941Z,955.63
2022-11-03T03:38:52.927Z,955.72
2022-11-03T03:39:52.916Z,955.64
2022-11-03T03:40:52.925Z,955.65
2022-11-03T03:41:52.894Z,955.67
2022-11-03T03:42:52.891Z,955.59
2022-11-03T03:43:52.897Z,955.62
2022-11-03T03:44:52.853Z,955.65
2022-11-03T03:45:52.865Z,955.60
2022-11-03T03:46:52.856Z,955.61
2022-11-03T03:48:06.208Z,955.59
2022-11-03T03:48:52.808Z,955.57
2022-11-03T03:49:52.782Z,955.61
2022-11-03T03:50:52.768Z,955.54
2022-11-03T03:51:52.790Z,955.56
2022-11-03T03:52:52.745Z,955.50
2022-11-03T03:53:52.735Z,955.49
2022-11-03T03:54:52.719Z,955.42
2022-11-03T03:55:52.728Z,955.44
2022-11-03T03:56:52.695Z,955.42
2022-11-03T03:57:55.358Z,955.35
2022-11-03T03:58:52.674Z,955.40
2022-11-03T03:59:52.658Z,955.40
2022-11-03T04:00:52.759Z,955.38
2022-11-03T04:01:52.861Z,955.35
2022-11-03T04:02:52.632Z,955.32
2022-11-03T04:03:52.623Z,955.32
2022-11-03T04:04:52.580Z,955.32
2022-11-03T04:05:52.591Z,955.27
2022-11-03T04:06:52.562Z,955.23
2022-11-03T04:07:52.538Z,955.25
2022-11-03T04:08:52.578Z,955.24
2022-11-03T04:09:52.551Z,955.23
2022-11-03T04:10:52.523Z,955.18
2022-11-03T04:11:52.488Z,955.19
2022-11-03T04:12:52.496Z,955.20
2022-11-03T04:13:52.465Z,955.18
2022-11-03T04:14:52.481Z,955.18
2022-11-03T04:15:52.439Z,955.22
2022-11-03T04:16:52.415Z,955.14
2022-11-03T04:17:52.424Z,955.12
2022-11-03T04:18:52.427Z,955.20
2022-11-03T04:19:52.388Z,955.18
2022-11-03T04:20:52.374Z,955.15
2022-11-03T04:21:52.381Z,955.15
2022-11-03T04:22:52.351Z,955.12
2022-11-03T04:23:52.351Z,955.16
2022-11-03T04:24:52.306Z,955.15
2022-11-03T04:25:52.307Z,955.11
2022-11-03T04:26:52.321Z,955.11
2022-11-03T04:27:52.275Z,955.09
2022-11-03T04:28:52.294Z,955.11
2022-11-03T04:29:52.248Z,955.12
2022-11-03T04:30:54.733Z,955.08
2022-11-03T04:31:52.256Z,955.12
2022-11-03T04:32:52.217Z,955.11
2022-11-03T04:33:52.199Z,955.09
2022-11-03T04:34:52.188Z,955.09
2022-11-03T04:35:52.172Z,955.05
2022-11-03T04:36:52.186Z,955.08
2022-11-03T04:37:52.144Z,955.07
2022-11-03T04:38:52.129Z,955.02
2022-11-03T04:39:52.151Z,955.07
2022-11-03T04:40:54.613Z,955.08
2022-11-03T04:41:52.084Z,955.04
2022-11-03T04:42:52.083Z,955.05
2022-11-03T04:43:52.087Z,955.09
2022-11-03T04:44:52.081Z,955.10
2022-11-03T04:45:52.034Z,955.09
2022-11-03T04:46:52.027Z,955.10
2022-11-03T04:47:52.007Z,955.04
2022-11-03T04:48:51.993Z,955.08
2022-11-03T04:49:51.998Z,955.05
2022-11-03T04:50:51.972Z,955.03
2022-11-03T04:51:51.991Z,955.04
2022-11-03T04:52:51.949Z,955.03
2022-11-03T04:53:51.933Z,955.04
2022-11-03T04:54:51.938Z,955.03
2022-11-03T04:55:51.927Z,955.03
2022-11-03T04:56:51.886Z,955.01
2022-11-03T04:57:51.878Z,955.02
2022-11-03T04:58:51.864Z,954.98
2022-11-03T04:59:51.846Z,954.96
2022-11-03T05:00:51.901Z,954.97
2022-11-03T05:01:52.101Z,954.95
2022-11-03T05:02:55.823Z,954.96
2022-11-03T05:03:51.810Z,954.93
2022-11-03T05:04:51.818Z,954.96
2022-11-03T05:05:51.787Z,954.91
2022-11-03T05:06:51.817Z,954.87
2022-11-03T05:07:51.743Z,954.87
2022-11-03T05:08:51.728Z,954.83
2022-11-03T05:09:51.750Z,954.81
2022-11-03T05:10:51.703Z,954.78
2022-11-03T05:11:51.682Z,954.79
2022-11-03T05:12:51.716Z,954.79
2022-11-03T05:13:51.689Z,954.83
2022-11-03T05:14:56.965Z,954.83
2022-11-03T05:15:51.664Z,954.79
2022-11-03T05:16:51.620Z,954.85
2022-11-03T05:17:51.600Z,954.80
2022-11-03T05:18:51.606Z,954.71
2022-11-03T05:19:51.604Z,954.77
2022-11-03T05:20:51.600Z,954.71
2022-11-03T05:21:51.564Z,954.71
2022-11-03T05:22:51.574Z,954.67
2022-11-03T05:23:51.525Z,954.69
2022-11-03T05:24:51.513Z,954.63
2022-11-03T05:25:51.525Z,954.68
2022-11-03T05:26:51.483Z,954.64
2022-11-03T05:27:51.495Z,954.58
2022-11-03T05:28:51.465Z,954.55
2022-11-03T05:29:53.962Z,954.53
2022-11-03T05:30:51.464Z,954.55
2022-11-03T05:31:51.434Z,954.52
2022-11-03T05:32:51.403Z,954.51
2022-11-03T05:33:51.422Z,954.47
2022-11-03T05:34:51.414Z,954.47
2022-11-03T05:35:51.382Z,954.44
2022-11-03T05:36:51.358Z,954.42
2022-11-03T05:37:51.344Z,954.41
2022-11-03T05:38:51.327Z,954.39
2022-11-03T05:39:51.343Z,954.39
2022-11-03T05:40:51.295Z,954.38
2022-11-03T05:41:51.319Z,954.37
2022-11-03T05:42:51.287Z,954.40
2022-11-03T05:43:51.265Z,954.37
2022-11-03T05:44:51.280Z,954.41
2022-11-03T05:45:51.333Z,954.40
2022-11-03T05:46:51.227Z,954.41
2022-11-03T05:47:51.231Z,954.46
2022-11-03T05:48:51.215Z,954.49
2022-11-03T05:49:51.236Z,954.42
2022-11-03T05:50:51.166Z,954.44
2022-11-03T05:51:51.154Z,954.45
2022-11-03T05:52:51.167Z,954.44
2022-11-03T05:53:51.131Z,954.41
2022-11-03T05:54:51.138Z,954.42
2022-11-03T05:55:51.103Z,954.37
2022-11-03T05:56:51.113Z,954.39
2022-11-03T05:57:51.072Z,954.37
2022-11-03T05:58:51.075Z,954.35
2022-11-03T05:59:51.067Z,954.35
2022-11-03T06:00:51.059Z,954.37
2022-11-03T06:01:51.196Z,954.35
2022-11-03T06:02:51.088Z,954.30
2022-11-03T06:03:50.997Z,954.29
2022-11-03T06:04:50.983Z,954.35
2022-11-03T06:05:51.012Z,954.30
2022-11-03T06:06:50.957Z,954.32
2022-11-03T06:07:50.961Z,954.32
2022-11-03T06:08:50.932Z,954.28
2022-11-03T06:09:50.910Z,954.26
2022-11-03T06:10:50.913Z,954.28
2022-11-03T06:11:50.884Z,954.27
2022-11-03T06:12:50.903Z,954.23
2022-11-03T06:13:50.850Z,954.23
2022-11-03T06:14:50.871Z,954.22
2022-11-03T06:15:50.825Z,954.20
2022-11-03T06:16:50.824Z,954.22
2022-11-03T06:17:50.807Z,954.20
2022-11-03T06:18:50.797Z,954.17
2022-11-03T06:19:50.849Z,954.18
2022-11-03T06:20:50.767Z,954.23
2022-11-03T06:21:50.758Z,954.19
2022-11-03T06:22:50.739Z,954.13
2022-11-03T06:23:50.716Z,954.19
2022-11-03T06:24:50.739Z,954.17
2022-11-03T06:25:50.695Z,954.14
2022-11-03T06:26:50.727Z,954.14
2022-11-03T06:27:50.674Z,954.15
2022-11-03T06:28:50.666Z,954.12
2022-11-03T06:29:51.305Z,954.11
2022-11-03T06:30:52.028Z,954.09
2022-11-03T06:31:50.613Z,954.13
2022-11-03T06:32:50.621Z,954.09
2022-11-03T06:33:50.589Z,954.08
2022-11-03T06:34:50.616Z,954.12
2022-11-03T06:35:50.576Z,954.10
2022-11-03T06:36:50.557Z,954.08
2022-11-03T06:37:50.555Z,954.11
2022-11-03T06:38:50.534Z,954.03
2022-11-03T06:39:50.541Z,954.02
2022-11-03T06:40:50.573Z,954.03
2022-11-03T06:41:50.482Z,954.01
2022-11-03T06:42:50.502Z,954.01
2022-11-03T06:43:50.470Z,954.03
2022-11-03T06:44:50.456Z,954.04
2022-11-03T06:45:50.478Z,954.03
2022-11-03T06:46:50.420Z,954.02
2022-11-03T06:47:50.417Z,954.08
2022-11-03T06:48:50.469Z,954.03
2022-11-03T06:49:50.374Z,954.06
2022-11-03T06:50:50.398Z,954.08
2022-11-03T06:51:50.352Z,954.09
2022-11-03T06:52:50.358Z,954.11
2022-11-03T06:53:50.318Z,954.13
2022-11-03T06:54:50.323Z,954.17
2022-11-03T06:55:50.319Z,954.14
2022-11-03T06:56:50.309Z,954.10
2022-11-03T06:57:50.280Z,954.11
2022-11-03T06:58:50.261Z,954.14
2022-11-03T06:59:57.002Z,954.10
2022-11-03T07:00:51.648Z,954.09
2022-11-03T07:01:50.369Z,954.09
2022-11-03T07:02:50.214Z,954.09
2022-11-03T07:03:50.199Z,954.08
2022-11-03T07:04:50.191Z,954.12
2022-11-03T07:05:50.234Z,954.10
2022-11-03T07:06:53.182Z,954.09
2022-11-03T07:07:50.139Z,954.09
2022-11-03T07:08:50.172Z,954.13
2022-11-03T07:09:50.120Z,954.11
2022-11-03T07:10:50.112Z,954.11
2022-11-03T07:11:50.077Z,954.13
2022-11-03T07:12:50.070Z,954.13
2022-11-03T07:13:50.081Z,954.10
2022-11-03T07:14:50.042Z,954.08
2022-11-03T07:15:50.047Z,954.04
2022-11-03T07:16:50.121Z,954.06
2022-11-03T07:17:50.003Z,954.01
2022-11-03T07:18:50.029Z,954.01
2022-11-03T07:19:49.976Z,953.95
2022-11-03T07:20:49.982Z,953.94
2022-11-03T07:21:49.997Z,953.92
2022-11-03T07:22:49.938Z,953.90
2022-11-03T07:23:49.935Z,953.93
2022-11-03T07:24:49.910Z,953.92
2022-11-03T07:25:49.899Z,953.90
2022-11-03T07:26:49.903Z,953.91
2022-11-03T07:27:49.874Z,953.92
2022-11-03T07:28:49.858Z,953.88
2022-11-03T07:29:49.864Z,953.86
2022-11-03T07:30:49.834Z,953.85
2022-11-03T07:31:49.847Z,953.87
2022-11-03T07:32:49.813Z,953.84
2022-11-03T07:33:49.786Z,953.81
2022-11-03T07:34:49.803Z,953.78
2022-11-03T07:36:54.399Z,953.76
2022-11-03T07:37:49.744Z,953.76
2022-11-03T07:38:49.752Z,953.72
2022-11-03T07:39:49.731Z,953.72
2022-11-03T07:40:49.705Z,953.74
2022-11-03T07:41:49.677Z,953.74
2022-11-03T07:42:49.716Z,953.66
2022-11-03T07:43:49.668Z,953.65
2022-11-03T07:44:49.764Z,953.59
2022-11-03T07:45:49.621Z,953.60
2022-11-03T07:46:49.659Z,953.66
2022-11-03T07:47:49.630Z,953.58
2022-11-03T07:48:49.590Z,953.56
2022-11-03T07:49:49.597Z,953.58
2022-11-03T07:50:49.559Z,953.57
2022-11-03T07:51:49.877Z,953.52
2022-11-03T07:52:49.535Z,953.52
2022-11-03T07:53:49.512Z,953.53
2022-11-03T07:54:49.548Z,953.51
2022-11-03T07:55:49.546Z,953.48
2022-11-03T07:56:49.484Z,953.44
2022-11-03T07:57:49.462Z,953.46
2022-11-03T07:58:49.446Z,953.45
2022-11-03T07:59:49.473Z,953.44
2022-11-03T08:00:49.425Z,953.37
2022-11-03T08:01:49.588Z,953.33
2022-11-03T08:02:49.445Z,953.37
2022-11-03T08:03:49.373Z,953.30
2022-11-03T08:04:49.409Z,953.28
2022-11-03T08:05:49.377Z,953.25
2022-11-03T08:06:49.354Z,953.19
2022-11-03T08:07:49.374Z,953.16
2022-11-03T08:08:49.307Z,953.15
2022-11-03T08:09:49.337Z,953.12
2022-11-03T08:10:49.288Z,953.11
2022-11-03T08:11:49.446Z,953.09
2022-11-03T08:12:49.267Z,953.04
2022-11-03T08:13:49.236Z,953.06
2022-11-03T08:14:49.257Z,953.00
2022-11-03T08:15:49.212Z,952.99
2022-11-03T08:16:49.197Z,952.98
2022-11-03T08:17:53.522Z,952.98
2022-11-03T08:18:49.179Z,953.00
2022-11-03T08:19:49.202Z,952.95
2022-11-03T08:20:49.178Z,952.92
2022-11-03T08:21:49.170Z,952.88
2022-11-03T08:23:05.089Z,952.91
2022-11-03T08:23:49.117Z,952.83
2022-11-03T08:24:49.101Z,952.84
2022-11-03T08:25:49.098Z,952.84
2022-11-03T08:26:49.235Z,952.80
2022-11-03T08:27:49.082Z,952.82
2022-11-03T08:28:49.035Z,952.78
2022-11-03T08:29:49.038Z,952.79
2022-11-03T08:30:49.006Z,952.74
2022-11-03T08:31:48.989Z,952.78
2022-11-03T08:32:49.001Z,952.73
2022-11-03T08:33:48.980Z,952.69
2022-11-03T08:34:48.962Z,952.68
2022-11-03T08:35:48.982Z,952.64
2022-11-03T08:36:48.968Z,952.60
2022-11-03T08:37:48.916Z,952.61
2022-11-03T08:38:48.955Z,952.57
2022-11-03T08:39:48.919Z,952.52
2022-11-03T08:40:52.740Z,952.51
2022-11-03T08:41:48.871Z,952.49
2022-11-03T08:42:48.873Z,952.49
2022-11-03T08:43:48.895Z,952.49
2022-11-03T08:44:48.819Z,952.51
2022-11-03T08:45:48.830Z,952.50
2022-11-03T08:46:48.829Z,952.51
2022-11-03T08:47:48.777Z,952.44
2022-11-03T08:48:48.756Z,952.44
2022-11-03T08:49:48.796Z,952.48
2022-11-03T08:50:48.745Z,952.49
2022-11-03T08:51:48.733Z,952.40
2022-11-03T08:52:48.713Z,952.35
2022-11-03T08:53:48.704Z,952.32
2022-11-03T08:54:48.784Z,952.28
2022-11-03T08:55:48.682Z,952.23
2022-11-03T08:56:48.682Z,952.21
2022-11-03T08:57:48.654Z,952.23
2022-11-03T08:58:48.670Z,952.27
2022-11-03T08:59:48.620Z,952.20
2022-11-03T09:00:48.609Z,952.17
2022-11-03T09:01:48.705Z,952.20
2022-11-03T09:02:48.578Z,952.21
2022-11-03T09:03:48.647Z,952.15
2022-11-03T09:04:48.537Z,952.15
2022-11-03T09:05:48.556Z,952.10
2022-11-03T09:06:48.538Z,952.11
2022-11-03T09:10:48.476Z,952.06
2022-11-03T09:11:48.485Z,951.98
2022-11-03T09:12:48.447Z,951.92
2022-11-03T09:13:48.434Z,951.92
2022-11-03T09:14:48.438Z,951.91
2022-11-03T09:15:48.421Z,951.89
2022-11-03T09:16:48.424Z,951.85
2022-11-03T09:17:48.373Z,951.82
2022-11-03T09:18:48.376Z,951.79
2022-11-03T09:19:48.353Z,951.80
2022-11-03T09:20:48.340Z,951.74
2022-11-03T09:21:48.315Z,951.72
2022-11-03T09:22:48.305Z,951.74
2022-11-03T09:23:48.345Z,951.67
2022-11-03T09:24:48.286Z,951.68
2022-11-03T09:25:48.268Z,951.65
2022-11-03T09:26:48.243Z,951.69
2022-11-03T09:27:48.244Z,951.69
2022-11-03T09:28:48.273Z,951.67
2022-11-03T09:30:11.784Z,951.69
2022-11-03T09:30:48.224Z,951.68
2022-11-03T09:31:48.180Z,951.66
2022-11-03T09:32:48.235Z,951.66
2022-11-03T09:33:48.162Z,951.63
2022-11-03T09:34:48.249Z,951.60
2022-11-03T09:35:48.161Z,951.57
2022-11-03T09:36:53.110Z,951.57
2022-11-03T09:37:48.136Z,951.56
2022-11-03T09:38:48.108Z,951.54
2022-11-03T09:39:48.075Z,951.51
2022-11-03T09:41:58.398Z,951.52
2022-11-03T09:42:48.112Z,951.48
2022-11-03T09:43:48.021Z,951.48
2022-11-03T09:44:47.996Z,951.49
2022-11-03T09:45:47.992Z,951.47
2022-11-03T09:46:47.985Z,951.52
2022-11-03T09:47:48.027Z,951.50
2022-11-03T09:48:47.950Z,951.48
2022-11-03T09:49:47.939Z,951.50
2022-11-03T09:50:47.925Z,951.49
2022-11-03T09:51:47.914Z,951.45
2022-11-03T09:52:51.478Z,951.44
2022-11-03T09:53:47.895Z,951.39
2022-11-03T09:54:47.870Z,951.41
2022-11-03T09:55:47.892Z,951.40
2022-11-03T09:56:47.888Z,951.39
2022-11-03T09:57:47.847Z,951.42
2022-11-03T09:58:53.012Z,951.42
2022-11-03T09:59:47.853Z,951.41
2022-11-03T10:00:47.904Z,951.38
2022-11-03T10:01:47.933Z,951.39
2022-11-03T10:02:47.773Z,951.38
2022-11-03T10:03:47.757Z,951.38
2022-11-03T10:04:47.764Z,951.33
2022-11-03T10:05:47.749Z,951.33
2022-11-03T10:06:47.707Z,951.29
2022-11-03T10:07:47.784Z,951.25
2022-11-03T10:08:47.679Z,951.25
2022-11-03T10:09:47.792Z,951.26
2022-11-03T10:10:47.699Z,951.20
2022-11-03T10:11:47.648Z,951.16
2022-11-03T10:12:47.651Z,951.15
2022-11-03T10:13:47.660Z,951.13
2022-11-03T10:14:47.660Z,951.09
2022-11-03T10:15:47.590Z,951.07
2022-11-03T10:16:53.206Z,950.98
2022-11-03T10:17:47.573Z,950.97
2022-11-03T10:18:47.574Z,950.92
2022-11-03T10:19:47.529Z,950.94
2022-11-03T10:20:47.558Z,950.93
2022-11-03T10:21:47.513Z,950.88
2022-11-03T10:22:47.493Z,950.87
2022-11-03T10:23:47.522Z,950.88
2022-11-03T10:24:47.463Z,950.85
2022-11-03T10:25:47.464Z,950.84
2022-11-03T10:26:47.435Z,950.75
2022-11-03T10:27:47.462Z,950.73
2022-11-03T10:28:47.417Z,950.72
2022-11-03T10:29:53.387Z,950.69
2022-11-03T10:31:09.956Z,950.65
2022-11-03T10:31:47.399Z,950.64
2022-11-03T10:32:47.380Z,950.64
2022-11-03T10:33:47.375Z,950.58
2022-11-03T10:34:47.325Z,950.57
2022-11-03T10:35:47.333Z,950.56
2022-11-03T10:36:50.586Z,950.53
2022-11-03T10:37:47.307Z,950.53
2022-11-03T10:38:47.290Z,950.47
2022-11-03T10:39:47.262Z,950.47
2022-11-03T10:40:48.457Z,950.44
2022-11-03T10:41:47.358Z,950.39
2022-11-03T10:42:47.272Z,950.36
2022-11-03T10:43:47.219Z,950.30
2022-11-03T10:44:47.204Z,950.27
2022-11-03T10:45:47.189Z,950.24
2022-11-03T10:46:51.509Z,950.22
2022-11-03T10:47:47.161Z,950.23
2022-11-03T10:48:47.148Z,950.22
2022-11-03T10:49:47.138Z,950.26
2022-11-03T10:50:47.117Z,950.21
2022-11-03T10:51:47.153Z,950.20
2022-11-03T10:52:47.103Z,950.21
2022-11-03T10:53:47.096Z,950.17
2022-11-03T10:54:47.090Z,950.17
2022-11-03T10:55:47.057Z,950.11
2022-11-03T10:56:47.083Z,950.13
2022-11-03T10:57:51.976Z,950.10
2022-11-03T10:58:47.114Z,950.06
2022-11-03T10:59:46.997Z,950.06
2022-11-03T11:00:47.019Z,950.05
2022-11-03T11:01:47.277Z,950.06
2022-11-03T11:02:46.966Z,950.04
2022-11-03T11:03:47.003Z,950.07
2022-11-03T11:04:46.926Z,950.10
2022-11-03T11:05:46.920Z,950.10
2022-11-03T11:06:46.914Z,950.09
2022-11-03T11:07:47.048Z,950.13
2022-11-03T11:08:46.926Z,950.12
2022-11-03T11:09:46.869Z,950.08
2022-11-03T11:10:46.906Z,950.03
2022-11-03T11:11:46.835Z,949.99
2022-11-03T11:12:46.880Z,950.00
2022-11-03T11:13:46.889Z,949.98
2022-11-03T11:14:46.800Z,949.95
2022-11-03T11:15:46.860Z,949.95
2022-11-03T11:16:46.803Z,949.97
2022-11-03T11:17:46.795Z,949.98
2022-11-03T11:18:46.766Z,949.93
2022-11-03T11:19:46.759Z,949.97
2022-11-03T11:20:46.830Z,949.94
2022-11-03T11:21:46.723Z,949.91
2022-11-03T11:22:46.722Z,949.92
2022-11-03T11:23:46.701Z,949.89
2022-11-03T11:24:46.660Z,949.88
2022-11-03T11:25:46.668Z,949.87
2022-11-03T11:26:46.637Z,949.88
2022-11-03T11:27:46.659Z,949.87
2022-11-03T11:28:46.607Z,949.87
2022-11-03T11:29:46.599Z,949.86
2022-11-03T11:30:46.620Z,949.82
2022-11-03T11:31:46.598Z,949.77
2022-11-03T11:32:46.572Z,949.74
2022-11-03T11:33:46.549Z,949.75
2022-11-03T11:34:46.533Z,949.76
2022-11-03T11:35:46.553Z,949.80
2022-11-03T11:36:46.537Z,949.81
2022-11-03T11:37:46.558Z,949.80
2022-11-03T11:38:46.487Z,949.81
2022-11-03T11:39:46.470Z,949.80
2022-11-03T11:40:46.455Z,949.77
2022-11-03T11:41:46.467Z,949.74
2022-11-03T11:42:46.431Z,949.74
2022-11-03T11:43:46.420Z,949.78
2022-11-03T11:44:46.405Z,949.76
2022-11-03T11:45:46.548Z,949.71
2022-11-03T11:46:46.373Z,949.72
2022-11-03T11:47:46.408Z,949.73
2022-11-03T11:48:46.340Z,949.69
2022-11-03T11:49:46.367Z,949.75
2022-11-03T11:50:46.345Z,949.73
2022-11-03T11:51:46.346Z,949.70
2022-11-03T11:52:46.296Z,949.74
2022-11-03T11:53:50.951Z,949.75
2022-11-03T11:54:46.268Z,949.73
2022-11-03T11:55:46.286Z,949.72
2022-11-03T11:56:46.238Z,949.67
2022-11-03T11:57:46.243Z,949.66
2022-11-03T11:58:46.235Z,949.68
2022-11-03T11:59:46.201Z,949.67
2022-11-03T12:00:46.212Z,949.64
2022-11-03T12:01:46.211Z,949.64
2022-11-03T12:02:46.160Z,949.60
2022-11-03T12:03:46.199Z,949.62
2022-11-03T12:04:46.144Z,949.59
2022-11-03T12:05:46.143Z,949.58
2022-11-03T12:06:46.110Z,949.53
2022-11-03T12:07:46.091Z,949.56
2022-11-03T12:08:46.073Z,949.52
2022-11-03T12:09:46.068Z,949.59
2022-11-03T12:10:46.102Z,949.60
2022-11-03T12:11:47.032Z,949.53
2022-11-03T12:12:46.021Z,949.58
2022-11-03T12:13:46.013Z,949.55
2022-11-03T12:14:46.022Z,949.54
2022-11-03T12:15:46.013Z,949.51
2022-11-03T12:16:45.973Z,949.54
2022-11-03T12:17:45.981Z,949.50
2022-11-03T12:18:50.394Z,949.48
2022-11-03T12:19:45.975Z,949.46
2022-11-03T12:20:45.923Z,949.42
2022-11-03T12:21:45.907Z,949.42
2022-11-03T12:22:45.944Z,949.40
2022-11-03T12:23:45.872Z,949.42
2022-11-03T12:24:45.902Z,949.39
2022-11-03T12:25:45.864Z,949.39
2022-11-03T12:26:45.841Z,949.36
2022-11-03T12:27:45.829Z,949.37
2022-11-03T12:28:45.824Z,949.34
2022-11-03T12:29:45.842Z,949.30
2022-11-03T12:30:45.779Z,949.29
2022-11-03T12:31:45.811Z,949.31
2022-11-03T12:32:45.758Z,949.27
2022-11-03T12:33:45.744Z,949.28
2022-11-03T12:34:45.742Z,949.29